Blue Grotto — WDE6956 — position and weather

sailwx.info

Track history (hours):
 
Tides and Currents Weather Stations Pressure Air Temp Water Temp Dewpoint Dewpoint Depression Visibility Wind Speed Wind Dir Waves Ship Positions

Blue Grotto

Owner: Waterwood LLC, Newport, RI. More information available from US FCC via Universal Licensing System and Coast Guard Vessel Documentation Center.

Last reported at 2015-Sep-03 13:30 UTC. Time now 2015-Sep-05 05:47 UTC.
Position N 39°17' W 076°15'.

Length 19 m.

Type: Pleasure craft. MMSI: 367387040.

Date/timePositionNaut miles runAvg speedWind from/ knotsBaromVisibWave heightAir tempDewpointWater temp
2015-Sep-03 13:30N 39°17' W 076°15'12 0.8
2015-Sep-02 21:20N 39°24' W 076°03'810.0
2015-Sep-02 20:33N 39°30' W 075°56'1010.0
2015-Sep-02 19:33N 39°33' W 075°43'8 8.0
2015-Sep-02 18:33N 39°31' W 075°33'10 9.7
2015-Sep-02 17:33N 39°23' W 075°28'1111.0
2015-Sep-02 16:32N 39°14' W 075°18'1010.3
2015-Sep-02 15:34N 39°06' W 075°11'  
2015-Aug-30 19:06N 39°35' W 074°11'4 8.1
2015-Aug-30 18:33N 39°39' W 074°08'9 8.4
2015-Aug-30 17:32N 39°47' W 074°04'46 0.9
2015-Aug-28 16:22N 40°33' W 074°02'8 9.7
2015-Aug-28 15:33N 40°41' W 074°01'  
2015-Aug-24 19:26N 40°60' W 073°04'8 9.4
2015-Aug-24 18:33N 41°02' W 072°53'9 9.2
2015-Aug-24 17:33N 41°05' W 072°42'9 8.6
2015-Aug-24 16:33N 41°07' W 072°31'  
Track history (hours):
 
Tides and Currents Weather Stations Pressure Air Temp Water Temp Dewpoint Dewpoint Depression Visibility Wind Speed Wind Dir Waves Ship Positions

Blue Grotto

Owner: Waterwood LLC, Newport, RI. More information available from US FCC via Universal Licensing System and Coast Guard Vessel Documentation Center.

Last reported at 2015-Sep-03 13:30 UTC. Time now 2015-Sep-05 05:47 UTC.
Position N 39°17' W 076°15'.

Length 19 m.

Type: Pleasure craft. MMSI: 367387040.

Date/timePositionNaut miles runAvg speedWind from/ knotsBaromVisibWave heightAir tempDewpointWater temp
2015-Sep-03 13:30N 39°17' W 076°15'12 0.8
2015-Sep-02 21:20N 39°24' W 076°03'810.0
2015-Sep-02 20:33N 39°30' W 075°56'1010.0
2015-Sep-02 19:33N 39°33' W 075°43'8 8.0
2015-Sep-02 18:33N 39°31' W 075°33'10 9.7
2015-Sep-02 17:33N 39°23' W 075°28'1111.0
2015-Sep-02 16:32N 39°14' W 075°18'1010.3
2015-Sep-02 15:34N 39°06' W 075°11'  
2015-Aug-30 19:06N 39°35' W 074°11'4 8.1
2015-Aug-30 18:33N 39°39' W 074°08'9 8.4
2015-Aug-30 17:32N 39°47' W 074°04'46 0.9
2015-Aug-28 16:22N 40°33' W 074°02'8 9.7
2015-Aug-28 15:33N 40°41' W 074°01'  
2015-Aug-24 19:26N 40°60' W 073°04'8 9.4
2015-Aug-24 18:33N 41°02' W 072°53'9 9.2
2015-Aug-24 17:33N 41°05' W 072°42'9 8.6
2015-Aug-24 16:33N 41°07' W 072°31'  

Dump ship's entire track history